sensor_id;sensor_type;location;lat;lon;timestamp;temperature;humidity
74869;DHT22;63419;42.262;12.210;2023-09-30T00:02:18;16.10;99.90
74869;DHT22;63419;42.262;12.210;2023-09-30T00:04:44;16.20;99.90
74869;DHT22;63419;42.262;12.210;2023-09-30T00:07:10;16.40;99.90
74869;DHT22;63419;42.262;12.210;2023-09-30T00:09:36;16.60;99.90
74869;DHT22;63419;42.262;12.210;2023-09-30T00:12:02;16.70;99.90
74869;DHT22;63419;42.262;12.210;2023-09-30T00:14:28;16.70;99.90
74869;DHT22;63419;42.262;12.210;2023-09-30T00:16:55;16.80;99.90
74869;DHT22;63419;42.262;12.210;2023-09-30T00:19:21;16.80;99.90
74869;DHT22;63419;42.262;12.210;2023-09-30T00:21:48;16.70;99.90
74869;DHT22;63419;42.262;12.210;2023-09-30T00:24:14;16.70;99.90
74869;DHT22;63419;42.262;12.210;2023-09-30T00:26:40;16.60;99.90
74869;DHT22;63419;42.262;12.210;2023-09-30T00:29:06;16.40;99.90
74869;DHT22;63419;42.262;12.210;2023-09-30T00:31:31;16.30;99.90
74869;DHT22;63419;42.262;12.210;2023-09-30T00:33:57;15.50;99.90
74869;DHT22;63419;42.262;12.210;2023-09-30T00:36:23;15.50;99.90
74869;DHT22;63419;42.262;12.210;2023-09-30T00:38:49;15.50;99.90
74869;DHT22;63419;42.262;12.210;2023-09-30T00:41:15;15.40;99.90
74869;DHT22;63419;42.262;12.210;2023-09-30T00:43:41;15.40;99.90
74869;DHT22;63419;42.262;12.210;2023-09-30T00:48:53;15.70;99.90
74869;DHT22;63419;42.262;12.210;2023-09-30T00:51:21;15.80;99.90
74869;DHT22;63419;42.262;12.210;2023-09-30T00:53:50;15.90;99.90
74869;DHT22;63419;42.262;12.210;2023-09-30T00:56:18;16.10;99.90
74869;DHT22;63419;42.262;12.210;2023-09-30T00:58:46;16.10;99.90
74869;DHT22;63419;42.262;12.210;2023-09-30T01:01:25;16.30;99.90
74869;DHT22;63419;42.262;12.210;2023-09-30T01:03:51;16.70;99.90
74869;DHT22;63419;42.262;12.210;2023-09-30T01:06:17;17.00;99.90
74869;DHT22;63419;42.262;12.210;2023-09-30T01:08:44;17.00;99.90
74869;DHT22;63419;42.262;12.210;2023-09-30T01:11:10;16.00;99.90
74869;DHT22;63419;42.262;12.210;2023-09-30T01:13:37;14.70;99.90
74869;DHT22;63419;42.262;12.210;2023-09-30T01:18:31;14.40;99.90
74869;DHT22;63419;42.262;12.210;2023-09-30T01:21:00;14.10;99.90
74869;DHT22;63419;42.262;12.210;2023-09-30T01:23:33;13.90;99.90
74869;DHT22;63419;42.262;12.210;2023-09-30T01:26:09;13.70;99.90
74869;DHT22;63419;42.262;12.210;2023-09-30T01:28:37;13.60;99.90
74869;DHT22;63419;42.262;12.210;2023-09-30T01:31:04;13.60;99.90
74869;DHT22;63419;42.262;12.210;2023-09-30T01:33:31;13.80;99.90
74869;DHT22;63419;42.262;12.210;2023-09-30T01:35:58;13.80;99.90
74869;DHT22;63419;42.262;12.210;2023-09-30T01:38:25;14.00;99.90
74869;DHT22;63419;42.262;12.210;2023-09-30T01:40:51;13.90;99.90
74869;DHT22;63419;42.262;12.210;2023-09-30T01:43:19;13.90;99.90
74869;DHT22;63419;42.262;12.210;2023-09-30T01:45:45;14.00;99.90
74869;DHT22;63419;42.262;12.210;2023-09-30T01:48:11;14.30;99.90
74869;DHT22;63419;42.262;12.210;2023-09-30T01:50:40;14.50;99.90
74869;DHT22;63419;42.262;12.210;2023-09-30T01:53:06;14.60;99.90
74869;DHT22;63419;42.262;12.210;2023-09-30T01:55:33;14.70;99.90
74869;DHT22;63419;42.262;12.210;2023-09-30T01:58:00;14.70;99.90
74869;DHT22;63419;42.262;12.210;2023-09-30T02:00:26;14.80;99.90
74869;DHT22;63419;42.262;12.210;2023-09-30T02:02:56;14.70;99.90
74869;DHT22;63419;42.262;12.210;2023-09-30T02:05:23;14.60;99.90
74869;DHT22;63419;42.262;12.210;2023-09-30T02:07:50;14.50;99.90
74869;DHT22;63419;42.262;12.210;2023-09-30T02:10:17;14.50;99.90
74869;DHT22;63419;42.262;12.210;2023-09-30T02:12:46;14.50;99.90
74869;DHT22;63419;42.262;12.210;2023-09-30T02:15:13;14.60;99.90
74869;DHT22;63419;42.262;12.210;2023-09-30T02:17:39;14.60;99.90
74869;DHT22;63419;42.262;12.210;2023-09-30T02:20:11;14.60;99.90
74869;DHT22;63419;42.262;12.210;2023-09-30T02:22:41;14.60;99.90
74869;DHT22;63419;42.262;12.210;2023-09-30T02:25:09;14.60;99.90
74869;DHT22;63419;42.262;12.210;2023-09-30T02:27:35;14.60;99.90
74869;DHT22;63419;42.262;12.210;2023-09-30T02:30:01;14.50;99.90
74869;DHT22;63419;42.262;12.210;2023-09-30T02:32:27;14.30;99.90
74869;DHT22;63419;42.262;12.210;2023-09-30T02:34:53;14.30;99.90
74869;DHT22;63419;42.262;12.210;2023-09-30T02:37:19;14.20;99.90
74869;DHT22;63419;42.262;12.210;2023-09-30T02:39:46;14.20;99.90
74869;DHT22;63419;42.262;12.210;2023-09-30T02:42:11;14.30;99.90
74869;DHT22;63419;42.262;12.210;2023-09-30T02:44:37;14.40;99.90
74869;DHT22;63419;42.262;12.210;2023-09-30T02:47:03;14.40;99.90
74869;DHT22;63419;42.262;12.210;2023-09-30T02:49:33;14.40;99.90
74869;DHT22;63419;42.262;12.210;2023-09-30T02:51:58;14.40;99.90
74869;DHT22;63419;42.262;12.210;2023-09-30T02:54:24;14.20;99.90
74869;DHT22;63419;42.262;12.210;2023-09-30T02:56:50;14.00;99.90
74869;DHT22;63419;42.262;12.210;2023-09-30T02:59:17;13.90;99.90
74869;DHT22;63419;42.262;12.210;2023-09-30T03:01:44;13.80;99.90
74869;DHT22;63419;42.262;12.210;2023-09-30T03:04:10;13.70;99.90
74869;DHT22;63419;42.262;12.210;2023-09-30T03:06:38;13.70;99.90
74869;DHT22;63419;42.262;12.210;2023-09-30T03:09:05;13.60;99.90
74869;DHT22;63419;42.262;12.210;2023-09-30T03:11:31;13.60;99.90
74869;DHT22;63419;42.262;12.210;2023-09-30T03:13:58;13.70;99.90
74869;DHT22;63419;42.262;12.210;2023-09-30T03:16:24;13.70;99.90
74869;DHT22;63419;42.262;12.210;2023-09-30T03:18:50;13.70;99.90
74869;DHT22;63419;42.262;12.210;2023-09-30T03:21:17;13.70;99.90
74869;DHT22;63419;42.262;12.210;2023-09-30T03:23:43;13.70;99.90
74869;DHT22;63419;42.262;12.210;2023-09-30T03:26:09;13.70;99.90
74869;DHT22;63419;42.262;12.210;2023-09-30T03:28:38;13.70;99.90
74869;DHT22;63419;42.262;12.210;2023-09-30T03:31:05;13.60;99.90
74869;DHT22;63419;42.262;12.210;2023-09-30T03:33:32;13.60;99.90
74869;DHT22;63419;42.262;12.210;2023-09-30T03:35:58;13.50;99.90
74869;DHT22;63419;42.262;12.210;2023-09-30T03:38:25;13.70;99.90
74869;DHT22;63419;42.262;12.210;2023-09-30T03:40:51;13.70;99.90
74869;DHT22;63419;42.262;12.210;2023-09-30T03:43:20;13.60;99.90
74869;DHT22;63419;42.262;12.210;2023-09-30T03:45:47;13.70;99.90
74869;DHT22;63419;42.262;12.210;2023-09-30T03:48:12;13.60;99.90
74869;DHT22;63419;42.262;12.210;2023-09-30T03:50:38;13.80;99.90
74869;DHT22;63419;42.262;12.210;2023-09-30T03:53:07;13.80;99.90
74869;DHT22;63419;42.262;12.210;2023-09-30T03:55:33;13.60;99.90
74869;DHT22;63419;42.262;12.210;2023-09-30T03:58:00;13.60;99.90
74869;DHT22;63419;42.262;12.210;2023-09-30T04:00:26;13.60;99.90
74869;DHT22;63419;42.262;12.210;2023-09-30T04:02:52;13.60;99.90
74869;DHT22;63419;42.262;12.210;2023-09-30T04:05:24;13.60;99.90
74869;DHT22;63419;42.262;12.210;2023-09-30T04:07:55;13.50;99.90
74869;DHT22;63419;42.262;12.210;2023-09-30T04:10:22;13.40;99.90
74869;DHT22;63419;42.262;12.210;2023-09-30T04:12:48;13.40;99.90
74869;DHT22;63419;42.262;12.210;2023-09-30T04:15:14;13.30;99.90
74869;DHT22;63419;42.262;12.210;2023-09-30T04:17:41;13.40;99.90
74869;DHT22;63419;42.262;12.210;2023-09-30T04:20:07;13.40;99.90
74869;DHT22;63419;42.262;12.210;2023-09-30T04:22:42;13.50;99.90
74869;DHT22;63419;42.262;12.210;2023-09-30T04:25:15;13.50;99.90
74869;DHT22;63419;42.262;12.210;2023-09-30T04:27:42;13.50;99.90
74869;DHT22;63419;42.262;12.210;2023-09-30T04:30:10;13.50;99.90
74869;DHT22;63419;42.262;12.210;2023-09-30T04:32:37;13.40;99.90
74869;DHT22;63419;42.262;12.210;2023-09-30T04:35:06;13.40;99.90
74869;DHT22;63419;42.262;12.210;2023-09-30T04:37:36;13.30;99.90
74869;DHT22;63419;42.262;12.210;2023-09-30T04:40:09;13.30;99.90
74869;DHT22;63419;42.262;12.210;2023-09-30T04:42:43;13.20;99.90
74869;DHT22;63419;42.262;12.210;2023-09-30T04:45:10;13.20;99.90
74869;DHT22;63419;42.262;12.210;2023-09-30T04:47:36;13.20;99.90
74869;DHT22;63419;42.262;12.210;2023-09-30T04:50:06;13.20;99.90
74869;DHT22;63419;42.262;12.210;2023-09-30T04:52:34;13.20;99.90
74869;DHT22;63419;42.262;12.210;2023-09-30T04:55:00;13.10;99.90
74869;DHT22;63419;42.262;12.210;2023-09-30T04:57:27;13.10;99.90
74869;DHT22;63419;42.262;12.210;2023-09-30T04:59:53;13.00;99.90
74869;DHT22;63419;42.262;12.210;2023-09-30T05:02:27;13.00;99.90
74869;DHT22;63419;42.262;12.210;2023-09-30T05:04:53;13.10;99.90
74869;DHT22;63419;42.262;12.210;2023-09-30T05:07:20;13.20;99.90
74869;DHT22;63419;42.262;12.210;2023-09-30T05:09:49;13.10;99.90
74869;DHT22;63419;42.262;12.210;2023-09-30T05:12:15;13.10;99.90
74869;DHT22;63419;42.262;12.210;2023-09-30T05:14:41;13.00;99.90
74869;DHT22;63419;42.262;12.210;2023-09-30T05:17:08;12.90;99.90
74869;DHT22;63419;42.262;12.210;2023-09-30T05:19:34;12.90;99.90
74869;DHT22;63419;42.262;12.210;2023-09-30T05:22:20;13.00;99.90
74869;DHT22;63419;42.262;12.210;2023-09-30T05:24:52;13.00;99.90
74869;DHT22;63419;42.262;12.210;2023-09-30T05:27:19;13.10;99.90
74869;DHT22;63419;42.262;12.210;2023-09-30T05:29:45;13.10;99.90
74869;DHT22;63419;42.262;12.210;2023-09-30T05:32:12;13.10;99.90
74869;DHT22;63419;42.262;12.210;2023-09-30T05:34:39;13.20;99.90
74869;DHT22;63419;42.262;12.210;2023-09-30T05:37:05;13.20;99.90
74869;DHT22;63419;42.262;12.210;2023-09-30T05:39:31;13.10;99.90
74869;DHT22;63419;42.262;12.210;2023-09-30T05:41:58;13.20;99.90
74869;DHT22;63419;42.262;12.210;2023-09-30T05:44:24;13.20;99.90
74869;DHT22;63419;42.262;12.210;2023-09-30T05:46:53;13.40;99.90
74869;DHT22;63419;42.262;12.210;2023-09-30T05:49:20;13.50;99.90
74869;DHT22;63419;42.262;12.210;2023-09-30T05:51:46;13.60;99.90
74869;DHT22;63419;42.262;12.210;2023-09-30T05:54:14;13.70;99.90
74869;DHT22;63419;42.262;12.210;2023-09-30T05:56:40;13.80;99.90
74869;DHT22;63419;42.262;12.210;2023-09-30T06:02:32;14.00;99.90
74869;DHT22;63419;42.262;12.210;2023-09-30T06:04:58;14.00;99.90
74869;DHT22;63419;42.262;12.210;2023-09-30T06:07:23;14.10;99.90
74869;DHT22;63419;42.262;12.210;2023-09-30T06:09:49;14.20;99.90
74869;DHT22;63419;42.262;12.210;2023-09-30T06:12:15;14.20;99.90
74869;DHT22;63419;42.262;12.210;2023-09-30T06:14:41;14.40;99.90
74869;DHT22;63419;42.262;12.210;2023-09-30T06:17:07;14.50;99.90
74869;DHT22;63419;42.262;12.210;2023-09-30T06:19:34;14.50;99.90
74869;DHT22;63419;42.262;12.210;2023-09-30T06:22:00;14.60;99.90
74869;DHT22;63419;42.262;12.210;2023-09-30T06:24:25;14.70;99.90
74869;DHT22;63419;42.262;12.210;2023-09-30T06:26:52;14.80;99.90
74869;DHT22;63419;42.262;12.210;2023-09-30T06:29:18;14.90;99.90
74869;DHT22;63419;42.262;12.210;2023-09-30T06:31:45;15.00;99.90
74869;DHT22;63419;42.262;12.210;2023-09-30T06:34:10;15.10;99.90
74869;DHT22;63419;42.262;12.210;2023-09-30T06:36:36;15.30;99.90
74869;DHT22;63419;42.262;12.210;2023-09-30T06:39:07;15.30;99.90
74869;DHT22;63419;42.262;12.210;2023-09-30T06:41:33;15.40;99.90
74869;DHT22;63419;42.262;12.210;2023-09-30T06:43:58;15.50;99.90
74869;DHT22;63419;42.262;12.210;2023-09-30T06:46:25;15.70;99.90
74869;DHT22;63419;42.262;12.210;2023-09-30T06:48:52;15.80;99.90
74869;DHT22;63419;42.262;12.210;2023-09-30T06:51:18;15.80;99.90
74869;DHT22;63419;42.262;12.210;2023-09-30T06:53:44;15.80;99.90
74869;DHT22;63419;42.262;12.210;2023-09-30T06:56:11;15.80;99.90
74869;DHT22;63419;42.262;12.210;2023-09-30T06:58:38;16.00;99.90
74869;DHT22;63419;42.262;12.210;2023-09-30T07:01:04;16.00;99.90
74869;DHT22;63419;42.262;12.210;2023-09-30T07:03:30;16.10;99.90
74869;DHT22;63419;42.262;12.210;2023-09-30T07:05:58;16.20;99.90
74869;DHT22;63419;42.262;12.210;2023-09-30T07:08:29;16.40;99.90
74869;DHT22;63419;42.262;12.210;2023-09-30T07:10:55;16.50;99.90
74869;DHT22;63419;42.262;12.210;2023-09-30T07:13:22;16.60;99.90
74869;DHT22;63419;42.262;12.210;2023-09-30T07:15:48;16.70;99.90
74869;DHT22;63419;42.262;12.210;2023-09-30T07:18:13;16.70;99.90
74869;DHT22;63419;42.262;12.210;2023-09-30T07:20:39;16.90;99.90
74869;DHT22;63419;42.262;12.210;2023-09-30T07:23:05;17.00;99.90
74869;DHT22;63419;42.262;12.210;2023-09-30T07:25:32;17.10;99.90
74869;DHT22;63419;42.262;12.210;2023-09-30T07:27:58;17.20;99.90
74869;DHT22;63419;42.262;12.210;2023-09-30T07:30:26;17.20;99.90
74869;DHT22;63419;42.262;12.210;2023-09-30T07:32:52;17.40;99.90
74869;DHT22;63419;42.262;12.210;2023-09-30T07:35:19;17.40;99.90
74869;DHT22;63419;42.262;12.210;2023-09-30T07:37:45;17.60;99.90
74869;DHT22;63419;42.262;12.210;2023-09-30T07:40:11;17.60;99.90
74869;DHT22;63419;42.262;12.210;2023-09-30T07:42:38;17.80;99.90
74869;DHT22;63419;42.262;12.210;2023-09-30T07:45:04;17.90;99.90
74869;DHT22;63419;42.262;12.210;2023-09-30T07:47:31;18.00;99.90
74869;DHT22;63419;42.262;12.210;2023-09-30T07:49:59;18.00;99.90
74869;DHT22;63419;42.262;12.210;2023-09-30T07:52:31;18.30;99.90
74869;DHT22;63419;42.262;12.210;2023-09-30T07:54:57;18.50;99.90
74869;DHT22;63419;42.262;12.210;2023-09-30T07:57:23;18.70;99.90
74869;DHT22;63419;42.262;12.210;2023-09-30T07:59:49;19.00;99.90
74869;DHT22;63419;42.262;12.210;2023-09-30T08:02:14;19.10;99.90
74869;DHT22;63419;42.262;12.210;2023-09-30T08:04:40;19.30;99.90
74869;DHT22;63419;42.262;12.210;2023-09-30T08:07:06;19.30;99.90
74869;DHT22;63419;42.262;12.210;2023-09-30T08:09:32;19.50;99.90
74869;DHT22;63419;42.262;12.210;2023-09-30T08:11:58;19.70;99.90
74869;DHT22;63419;42.262;12.210;2023-09-30T08:14:23;19.90;99.90
74869;DHT22;63419;42.262;12.210;2023-09-30T08:16:49;20.00;99.90
74869;DHT22;63419;42.262;12.210;2023-09-30T08:19:15;20.20;99.90
74869;DHT22;63419;42.262;12.210;2023-09-30T08:21:41;20.20;99.90
74869;DHT22;63419;42.262;12.210;2023-09-30T08:24:07;20.40;99.90
74869;DHT22;63419;42.262;12.210;2023-09-30T08:26:34;20.60;99.90
74869;DHT22;63419;42.262;12.210;2023-09-30T08:29:01;20.70;99.90
74869;DHT22;63419;42.262;12.210;2023-09-30T08:31:27;20.60;99.90
74869;DHT22;63419;42.262;12.210;2023-09-30T08:33:53;20.80;99.90
74869;DHT22;63419;42.262;12.210;2023-09-30T08:36:19;21.00;99.90
74869;DHT22;63419;42.262;12.210;2023-09-30T08:38:45;21.00;99.90
74869;DHT22;63419;42.262;12.210;2023-09-30T08:41:31;21.20;99.90
74869;DHT22;63419;42.262;12.210;2023-09-30T08:44:02;21.50;99.90
74869;DHT22;63419;42.262;12.210;2023-09-30T08:46:33;21.70;99.90
74869;DHT22;63419;42.262;12.210;2023-09-30T08:49:04;21.90;99.90
74869;DHT22;63419;42.262;12.210;2023-09-30T08:51:35;22.00;99.90
74869;DHT22;63419;42.262;12.210;2023-09-30T08:54:02;22.20;99.90
74869;DHT22;63419;42.262;12.210;2023-09-30T08:56:31;22.00;99.90
74869;DHT22;63419;42.262;12.210;2023-09-30T08:59:01;22.40;99.90
74869;DHT22;63419;42.262;12.210;2023-09-30T09:01:29;22.40;99.90
74869;DHT22;63419;42.262;12.210;2023-09-30T09:03:56;22.50;99.90
74869;DHT22;63419;42.262;12.210;2023-09-30T09:06:24;22.60;99.90
74869;DHT22;63419;42.262;12.210;2023-09-30T09:08:51;22.90;99.90
74869;DHT22;63419;42.262;12.210;2023-09-30T09:11:17;22.80;99.90
74869;DHT22;63419;42.262;12.210;2023-09-30T09:13:54;22.90;99.90
74869;DHT22;63419;42.262;12.210;2023-09-30T09:16:24;22.90;99.90
74869;DHT22;63419;42.262;12.210;2023-09-30T09:18:51;23.20;99.90
74869;DHT22;63419;42.262;12.210;2023-09-30T09:21:21;23.50;99.90
74869;DHT22;63419;42.262;12.210;2023-09-30T09:23:53;23.70;99.90
74869;DHT22;63419;42.262;12.210;2023-09-30T09:26:27;24.10;99.90
74869;DHT22;63419;42.262;12.210;2023-09-30T09:29:04;24.10;99.90
74869;DHT22;63419;42.262;12.210;2023-09-30T09:31:36;24.30;99.90
74869;DHT22;63419;42.262;12.210;2023-09-30T09:34:03;24.40;99.90
74869;DHT22;63419;42.262;12.210;2023-09-30T09:39:06;24.10;99.90
74869;DHT22;63419;42.262;12.210;2023-09-30T09:41:32;24.50;99.90
74869;DHT22;63419;42.262;12.210;2023-09-30T09:44:14;24.80;99.90
74869;DHT22;63419;42.262;12.210;2023-09-30T09:46:42;24.80;99.90
74869;DHT22;63419;42.262;12.210;2023-09-30T09:49:11;25.10;99.90
74869;DHT22;63419;42.262;12.210;2023-09-30T09:51:38;25.30;99.90
74869;DHT22;63419;42.262;12.210;2023-09-30T09:54:06;25.30;99.90
74869;DHT22;63419;42.262;12.210;2023-09-30T09:56:34;25.70;99.90
74869;DHT22;63419;42.262;12.210;2023-09-30T09:59:03;25.90;99.90
74869;DHT22;63419;42.262;12.210;2023-09-30T10:01:33;26.10;99.90
74869;DHT22;63419;42.262;12.210;2023-09-30T10:04:05;26.30;99.90
74869;DHT22;63419;42.262;12.210;2023-09-30T10:06:33;26.50;99.90
74869;DHT22;63419;42.262;12.210;2023-09-30T10:09:09;25.10;99.90
74869;DHT22;63419;42.262;12.210;2023-09-30T10:11:38;25.60;99.90
74869;DHT22;63419;42.262;12.210;2023-09-30T10:14:05;26.00;99.90
74869;DHT22;63419;42.262;12.210;2023-09-30T10:21:39;27.00;99.90
74869;DHT22;63419;42.262;12.210;2023-09-30T10:35:21;28.20;99.00
74869;DHT22;63419;42.262;12.210;2023-09-30T10:40:54;27.60;99.50
74869;DHT22;63419;42.262;12.210;2023-09-30T10:45:59;27.20;99.70
74869;DHT22;63419;42.262;12.210;2023-09-30T10:50:59;27.00;99.10
74869;DHT22;63419;42.262;12.210;2023-09-30T10:53:29;27.80;98.20
74869;DHT22;63419;42.262;12.210;2023-09-30T10:55:59;28.00;97.40
74869;DHT22;63419;42.262;12.210;2023-09-30T10:58:50;27.80;98.10
74869;DHT22;63419;42.262;12.210;2023-09-30T11:01:22;28.30;96.40
74869;DHT22;63419;42.262;12.210;2023-09-30T11:03:50;28.30;97.10
74869;DHT22;63419;42.262;12.210;2023-09-30T11:06:23;29.00;96.30
74869;DHT22;63419;42.262;12.210;2023-09-30T11:08:56;28.70;96.80
74869;DHT22;63419;42.262;12.210;2023-09-30T11:11:40;28.90;93.30
74869;DHT22;63419;42.262;12.210;2023-09-30T11:16:49;30.50;94.20
74869;DHT22;63419;42.262;12.210;2023-09-30T11:19:17;31.20;93.10
74869;DHT22;63419;42.262;12.210;2023-09-30T11:21:48;31.90;92.10
74869;DHT22;63419;42.262;12.210;2023-09-30T11:24:16;32.80;91.60
74869;DHT22;63419;42.262;12.210;2023-09-30T11:26:43;33.10;91.10
74869;DHT22;63419;42.262;12.210;2023-09-30T11:29:15;33.10;90.70
74869;DHT22;63419;42.262;12.210;2023-09-30T11:31:43;33.20;90.00
74869;DHT22;63419;42.262;12.210;2023-09-30T11:34:15;32.80;87.40
74869;DHT22;63419;42.262;12.210;2023-09-30T11:36:53;32.50;87.40
74869;DHT22;63419;42.262;12.210;2023-09-30T11:39:30;33.50;86.10
74869;DHT22;63419;42.262;12.210;2023-09-30T11:41:57;34.00;85.20
74869;DHT22;63419;42.262;12.210;2023-09-30T11:44:24;34.80;84.20
74869;DHT22;63419;42.262;12.210;2023-09-30T11:46:58;34.90;81.80
74869;DHT22;63419;42.262;12.210;2023-09-30T11:49:52;35.00;77.60
74869;DHT22;63419;42.262;12.210;2023-09-30T11:52:26;35.00;78.00
74869;DHT22;63419;42.262;12.210;2023-09-30T11:54:53;34.60;76.10
74869;DHT22;63419;42.262;12.210;2023-09-30T11:57:19;35.10;76.10
74869;DHT22;63419;42.262;12.210;2023-09-30T11:59:45;34.70;76.00
74869;DHT22;63419;42.262;12.210;2023-09-30T12:02:12;35.00;74.10
74869;DHT22;63419;42.262;12.210;2023-09-30T12:04:48;34.50;74.30
74869;DHT22;63419;42.262;12.210;2023-09-30T12:07:14;34.90;75.90
74869;DHT22;63419;42.262;12.210;2023-09-30T12:09:40;34.90;77.70
74869;DHT22;63419;42.262;12.210;2023-09-30T12:12:06;35.60;79.40
74869;DHT22;63419;42.262;12.210;2023-09-30T12:14:34;35.30;80.20
74869;DHT22;63419;42.262;12.210;2023-09-30T12:17:00;34.80;80.20
74869;DHT22;63419;42.262;12.210;2023-09-30T12:19:26;31.30;83.10
74869;DHT22;63419;42.262;12.210;2023-09-30T12:21:53;31.70;85.70
74869;DHT22;63419;42.262;12.210;2023-09-30T12:24:19;34.40;83.70
74869;DHT22;63419;42.262;12.210;2023-09-30T12:26:47;32.70;83.30
74869;DHT22;63419;42.262;12.210;2023-09-30T12:29:19;30.80;87.00
74869;DHT22;63419;42.262;12.210;2023-09-30T12:31:48;29.90;86.90
74869;DHT22;63419;42.262;12.210;2023-09-30T12:34:16;29.90;88.00
74869;DHT22;63419;42.262;12.210;2023-09-30T12:36:43;30.60;85.80
74869;DHT22;63419;42.262;12.210;2023-09-30T12:39:10;29.40;88.20
74869;DHT22;63419;42.262;12.210;2023-09-30T12:41:38;28.80;88.00
74869;DHT22;63419;42.262;12.210;2023-09-30T12:44:09;28.30;89.20
74869;DHT22;63419;42.262;12.210;2023-09-30T12:46:36;27.60;88.30
74869;DHT22;63419;42.262;12.210;2023-09-30T12:49:08;28.60;90.00
74869;DHT22;63419;42.262;12.210;2023-09-30T12:51:34;30.00;86.60
74869;DHT22;63419;42.262;12.210;2023-09-30T12:54:02;30.60;84.50
74869;DHT22;63419;42.262;12.210;2023-09-30T12:56:28;33.30;81.80
74869;DHT22;63419;42.262;12.210;2023-09-30T12:58:58;34.80;78.70
74869;DHT22;63419;42.262;12.210;2023-09-30T13:01:25;35.90;78.10
74869;DHT22;63419;42.262;12.210;2023-09-30T13:03:51;37.50;76.30
74869;DHT22;63419;42.262;12.210;2023-09-30T13:06:17;36.00;73.10
74869;DHT22;63419;42.262;12.210;2023-09-30T13:08:44;36.70;75.70
74869;DHT22;63419;42.262;12.210;2023-09-30T13:11:10;36.50;76.80
74869;DHT22;63419;42.262;12.210;2023-09-30T13:13:38;37.80;75.90
74869;DHT22;63419;42.262;12.210;2023-09-30T13:16:05;38.10;75.80
74869;DHT22;63419;42.262;12.210;2023-09-30T13:18:31;38.50;76.60
74869;DHT22;63419;42.262;12.210;2023-09-30T13:20:58;39.80;74.20
74869;DHT22;63419;42.262;12.210;2023-09-30T13:23:24;39.90;71.50
74869;DHT22;63419;42.262;12.210;2023-09-30T13:25:50;39.60;71.40
74869;DHT22;63419;42.262;12.210;2023-09-30T13:28:16;37.70;71.30
74869;DHT22;63419;42.262;12.210;2023-09-30T13:30:42;37.40;73.50
74869;DHT22;63419;42.262;12.210;2023-09-30T13:33:07;38.60;73.20
74869;DHT22;63419;42.262;12.210;2023-09-30T13:35:33;39.90;72.30
74869;DHT22;63419;42.262;12.210;2023-09-30T13:38:02;39.70;70.70
74869;DHT22;63419;42.262;12.210;2023-09-30T13:40:29;38.90;70.20
74869;DHT22;63419;42.262;12.210;2023-09-30T13:42:55;38.90;71.30
74869;DHT22;63419;42.262;12.210;2023-09-30T13:45:23;39.00;72.00
74869;DHT22;63419;42.262;12.210;2023-09-30T13:47:49;39.60;70.90
74869;DHT22;63419;42.262;12.210;2023-09-30T13:50:14;39.20;70.40
74869;DHT22;63419;42.262;12.210;2023-09-30T13:52:41;38.90;69.90
74869;DHT22;63419;42.262;12.210;2023-09-30T13:55:08;38.40;71.40
74869;DHT22;63419;42.262;12.210;2023-09-30T13:57:34;38.20;71.60
74869;DHT22;63419;42.262;12.210;2023-09-30T14:00:02;38.20;70.90
74869;DHT22;63419;42.262;12.210;2023-09-30T14:02:34;37.50;69.50
74869;DHT22;63419;42.262;12.210;2023-09-30T14:05:01;37.30;71.40
74869;DHT22;63419;42.262;12.210;2023-09-30T14:07:27;37.90;71.70
74869;DHT22;63419;42.262;12.210;2023-09-30T14:09:53;38.20;72.30
74869;DHT22;63419;42.262;12.210;2023-09-30T14:12:19;38.10;72.60
74869;DHT22;63419;42.262;12.210;2023-09-30T14:14:45;38.50;73.20
74869;DHT22;63419;42.262;12.210;2023-09-30T14:17:11;38.50;72.80
74869;DHT22;63419;42.262;12.210;2023-09-30T14:19:38;38.70;73.20
74869;DHT22;63419;42.262;12.210;2023-09-30T14:22:04;39.10;73.60
74869;DHT22;63419;42.262;12.210;2023-09-30T14:24:32;38.50;73.00
74869;DHT22;63419;42.262;12.210;2023-09-30T14:27:02;38.20;73.00
74869;DHT22;63419;42.262;12.210;2023-09-30T14:29:29;37.80;73.20
74869;DHT22;63419;42.262;12.210;2023-09-30T14:31:56;37.80;73.40
74869;DHT22;63419;42.262;12.210;2023-09-30T14:34:23;38.80;72.40
74869;DHT22;63419;42.262;12.210;2023-09-30T14:36:49;38.00;72.70
74869;DHT22;63419;42.262;12.210;2023-09-30T14:39:16;38.10;73.30
74869;DHT22;63419;42.262;12.210;2023-09-30T14:41:43;38.00;73.60
74869;DHT22;63419;42.262;12.210;2023-09-30T14:44:10;37.70;73.20
74869;DHT22;63419;42.262;12.210;2023-09-30T14:46:38;38.50;73.10
74869;DHT22;63419;42.262;12.210;2023-09-30T14:49:05;37.90;73.50
74869;DHT22;63419;42.262;12.210;2023-09-30T14:51:35;37.20;73.60
74869;DHT22;63419;42.262;12.210;2023-09-30T14:54:02;36.80;73.70
74869;DHT22;63419;42.262;12.210;2023-09-30T14:56:28;37.40;74.40
74869;DHT22;63419;42.262;12.210;2023-09-30T14:58:54;37.30;74.00
74869;DHT22;63419;42.262;12.210;2023-09-30T15:01:20;38.00;72.40
74869;DHT22;63419;42.262;12.210;2023-09-30T15:03:47;37.50;71.50
74869;DHT22;63419;42.262;12.210;2023-09-30T15:06:14;37.60;70.10
74869;DHT22;63419;42.262;12.210;2023-09-30T15:08:40;36.60;69.70
74869;DHT22;63419;42.262;12.210;2023-09-30T15:11:11;37.30;71.40
74869;DHT22;63419;42.262;12.210;2023-09-30T15:13:40;36.30;69.20
74869;DHT22;63419;42.262;12.210;2023-09-30T15:16:14;34.30;71.10
74869;DHT22;63419;42.262;12.210;2023-09-30T15:18:42;33.80;76.70
74869;DHT22;63419;42.262;12.210;2023-09-30T15:21:07;33.60;77.50
74869;DHT22;63419;42.262;12.210;2023-09-30T15:23:33;32.50;79.30
74869;DHT22;63419;42.262;12.210;2023-09-30T15:25:59;32.00;81.40
74869;DHT22;63419;42.262;12.210;2023-09-30T15:28:26;30.60;83.50
74869;DHT22;63419;42.262;12.210;2023-09-30T15:30:53;30.50;81.20
74869;DHT22;63419;42.262;12.210;2023-09-30T15:33:19;30.10;86.50
74869;DHT22;63419;42.262;12.210;2023-09-30T15:35:45;29.80;87.60
74869;DHT22;63419;42.262;12.210;2023-09-30T15:38:12;29.50;89.70
74869;DHT22;63419;42.262;12.210;2023-09-30T15:40:52;30.00;90.40
74869;DHT22;63419;42.262;12.210;2023-09-30T15:43:20;28.90;90.50
74869;DHT22;63419;42.262;12.210;2023-09-30T15:45:48;27.80;93.10
74869;DHT22;63419;42.262;12.210;2023-09-30T15:48:15;28.20;93.50
74869;DHT22;63419;42.262;12.210;2023-09-30T15:50:42;27.60;93.60
74869;DHT22;63419;42.262;12.210;2023-09-30T15:53:08;26.40;98.00
74869;DHT22;63419;42.262;12.210;2023-09-30T15:55:34;26.30;99.40
74869;DHT22;63419;42.262;12.210;2023-09-30T15:58:01;26.90;98.50